Terminal Aerodrome Forecast
Issued by NWS

Home | Current Version | Previous Version | Text Only | Print | Product List | Glossary On
Versions: 1 2 3 4 5 6 7 8 9 10 11 12 13 14 15 16 17 18 19 20 21
271
FTUS42 KJAX 221120
TAFCRG
TAF
KCRG 221120Z 2212/2312 13008KT P6SM VCSH SCT020 BKN120 BKN250
     FM221600 14011G16KT P6SM VCTS SCT020 BKN030CB BKN090
      TEMPO 2216/2220 VRB15G25KT 3SM +TSRA BR SCT015 BKN025CB OVC050
     FM222000 11011G16KT P6SM VCSH SCT025 BKN070 BKN150
     FM230200 13005KT P6SM SCT070 BKN200=

USA.gov is the U.S. government's official web portal to all federal, state and local government web resources and services.